Latest Weather Observations for Liawenee

IDT60801

Issued at 4:35 pm EDT Thursday 27 November 2014 (issued every 30 minutes, with the page automatically refreshed every 10 minutes)

About weather observations | Map of weather stations | Latest weather observations for TAS | Other Formats
Station Details ID: 096033 Name: LIAWENEE Lat: -41.90 Lon: 146.67 Height: 1057.0 m
Data from the previous 72 hours. | See also: Recent months at Liawenee
Date/Time
EDT
Temp
°C
App
Temp
°C
Dew
Point
Rel
Hum
%
Delta-T
°C
Wind Press
QNH
hPa
Press
MSL
hPa
Rain
since 9 am
mm
Dir
 
Spd
km/h
Gust
km/h
Spd
kts
Gust
kts
27/04:30pm 13.7 8.1 1.0 42 5.7 SSW 20 32 11 17 1023.1 1022.3 0.0
27/04:00pm 14.5 8.4 0.4 38 6.3 SW 22 32 12 17 1023.1 1022.3 0.0
27/03:30pm 14.1 8.6 0.7 40 6.1 SSW 19 28 10 15 1023.1 1022.3 0.0
27/03:00pm 13.9 8.3 0.9 41 5.9 SSW 20 26 11 14 1023.1 1022.3 0.0
27/02:30pm 14.1 7.8 -0.7 36 6.5 WSW 22 33 12 18 1023.1 1022.3 0.0
27/02:00pm 14.0 7.3 1.6 43 5.7 SW 26 35 14 19 1023.2 1022.5 0.0
27/01:30pm 13.1 6.1 -0.2 40 5.9 SW 26 37 14 20 1023.1 1022.3 0.0
27/01:00pm 13.0 7.8 3.4 52 4.5 SSW 20 37 11 20 1022.9 1022.2 0.0
27/12:30pm 12.4 6.9 2.0 49 4.8 SW 20 24 11 13 1022.8 1022.1 0.0
27/12:00pm 11.5 6.2 2.8 55 4.0 SSW 20 26 11 14 1023.1 1022.3 0.0
27/11:30am 10.3 4.1 2.2 57 3.7 SW 24 33 13 18 1023.1 1022.3 0.0
27/11:00am 9.4 2.3 1.3 57 3.5 W 28 35 15 19 1023.1 1022.3 0.0
27/10:30am 8.7 3.1 1.1 59 3.3 SW 20 30 11 16 1023.2 1022.5 0.0
27/10:00am 7.9 1.3 2.2 67 2.5 SW 26 33 14 18 1023.1 1022.3 0.0
27/09:30am 7.6 1.6 1.0 63 2.8 SSW 22 32 12 17 1023.1 1022.3 0.0
27/09:00am 6.4 -0.1 0.5 66 2.5 SSW 24 32 13 17 1022.8 1022.1 0.0
27/08:30am 6.1 0.6 0.4 67 2.4 SW 19 26 10 14 1022.6 1021.9 0.0
27/08:00am 4.9 -0.2 0.5 73 1.8 SW 17 24 9 13 1022.5 1021.8 0.0
27/07:30am 3.1 -1.3 0.2 81 1.2 WSW 13 20 7 11 1022.4 1021.7 0.0
27/07:00am 2.1 -4.1 -0.2 85 0.9 WSW 22 30 12 16 1022.1 1021.3 0.0
27/06:30am 1.4 -4.8 -0.5 87 0.7 WSW 22 28 12 15 1021.8 1021.1 0.0
27/06:00am 0.7 -6.0 -1.1 88 0.7 WSW 24 28 13 15 1021.6 1020.9 0.0
27/05:30am 1.1 -5.1 -0.5 89 0.6 WSW 22 30 12 16 1021.4 1020.6 0.0
27/05:00am 1.5 -4.4 -0.6 86 0.8 WSW 20 26 11 14 1021.3 1020.5 0.0
27/04:30am 1.9 -3.7 -0.3 85 0.9 WSW 19 24 10 13 1021.1 1020.3 0.0
27/04:00am 1.7 -3.6 -0.4 86 0.8 WSW 17 22 9 12 1020.7 1020.0 0.0
27/03:30am 1.9 -3.0 -0.3 85 0.9 WSW 15 20 8 11 1020.7 1020.0 0.0
27/03:00am 1.7 -4.9 -0.5 85 0.9 WSW 24 33 13 18 1020.6 1019.8 0.0
27/02:30am 1.9 -4.3 -0.2 86 0.8 WSW 22 33 12 18 1020.5 1019.7 0.0
27/02:00am 1.3 -4.5 -0.3 89 0.6 WSW 20 28 11 15 1020.4 1019.6 0.0
27/01:30am 0.7 -4.6 -0.9 89 0.6 WSW 17 24 9 13 1020.5 1019.7 0.0
27/01:00am 1.3 -4.4 -0.5 88 0.7 WSW 19 28 10 15 1020.6 1019.8 0.0
27/12:30am 0.7 -4.3 -0.9 89 0.6 WSW 15 19 8 10 1020.8 1020.1 0.0
27/12:00am 1.8 -2.7 -0.3 86 0.8 WSW 13 19 7 10 1020.9 1020.2 0.0
 
Date/Time
EDT
Temp
°C
App
Temp
°C
Dew
Point
Rel
Hum
%
Delta-T
°C
Wind Press
QNH
hPa
Press
MSL
hPa
Rain
since 9 am
mm
Dir
 
Spd
km/h
Gust
km/h
Spd
kts
Gust
kts
26/11:30pm 1.1 -3.5 -0.8 87 0.7 SW 13 17 7 9 1020.9 1020.2 0.0
26/11:00pm 2.2 -3.1 -0.4 83 1.0 WSW 17 26 9 14 1020.9 1020.2 0.0
26/10:30pm 1.6 -4.3 -1.0 83 1.0 WSW 20 24 11 13 1020.8 1020.1 0.0
26/10:00pm 2.7 -2.2 -0.4 80 1.2 SW 15 20 8 11 1020.8 1020.1 0.0
26/09:30pm 2.1 -2.4 -0.3 84 0.9 SW 13 19 7 10 1020.6 1019.8 0.0
26/09:00pm 2.7 -3.1 -0.1 82 1.1 SW 20 28 11 15 1020.0 1019.2 0.0
26/08:30pm 3.2 -1.6 0.4 82 1.1 SW 15 26 8 14 1019.4 1018.6 0.0
26/08:00pm 4.2 -2.0 0.0 74 1.7 SW 22 32 12 17 1019.3 1018.5 0.0
26/07:30pm 5.1 -2.1 0.7 73 1.8 SW 28 37 15 20 1018.8 1018.0 0.0
26/07:00pm 6.3 -0.6 0.2 65 2.5 SW 26 37 14 20 1018.6 1017.8 0.0
26/06:30pm 7.0 -0.5 1.3 67 2.5 WSW 30 41 16 22 1018.2 1017.4 0.0
26/06:00pm 7.1 0.2 2.6 73 2.0 SW 28 35 15 19 1017.7 1016.9 0.0
26/05:30pm 7.0 -0.7 2.1 71 2.1 SW 32 43 17 23 1017.5 1016.7 0.0
26/05:00pm 7.4 -0.9 2.3 70 2.3 SW 35 48 19 26 1017.1 1016.2 0.0
26/04:30pm 8.0 -0.4 1.8 65 2.7 SW 35 46 19 25 1016.8 1016.0 0.0
26/04:00pm 8.7 0.8 1.1 59 3.3 SW 32 43 17 23 1016.6 1015.8 0.0
26/03:30pm 8.3 0.6 2.3 66 2.7 SW 32 41 17 22 1016.4 1015.5 0.0
26/03:00pm 9.2 0.7 0.9 56 3.6 SW 35 48 19 26 1016.2 1015.3 0.0
26/02:52pm 10.3 2.9 1.9 56 3.8 SW 30 48 16 26 1016.1 1015.2 0.0
26/02:30pm 9.9 2.1 2.0 58 3.5 SW 32 41 17 22 1016.1 1015.2 0.0
26/02:00pm 10.4 2.5 1.2 53 4.1 WSW 32 46 17 25 1016.1 1015.2 0.0
26/01:39pm 8.6 0.3 -0.2 54 3.7 WSW 33 52 18 28 1016.1 1015.2 0.0
26/01:30pm 9.8 0.5 0.9 54 3.9 WSW 39 54 21 29 1015.9 1015.0 0.0
26/01:01pm 9.7 1.3 1.8 58 3.5 WSW 35 54 19 29 1015.3 1014.4 0.0
26/01:00pm 10.1 1.9 2.9 61 3.3 WSW 35 50 19 27 1015.3 1014.4 0.0
26/12:42pm 9.0 1.2 2.6 64 2.9 SW 33 52 18 28 1015.4 1014.5 0.0
26/12:30pm 9.4 0.7 2.0 60 3.3 WSW 37 50 20 27 1015.3 1014.4 0.0
26/12:00pm 9.2 0.1 2.1 61 3.2 WSW 39 52 21 28 1015.0 1014.1 0.0
26/11:53am 8.7 0.6 1.1 59 3.3 SW 33 52 18 28 1014.9 1014.0 0.0
26/11:30am 7.1 -0.7 1.4 67 2.5 WSW 32 44 17 24 1015.1 1014.2 0.0
26/11:00am 8.2 -1.0 1.1 61 3.1 WSW 39 52 21 28 1014.5 1013.6 0.0
26/10:32am 6.9 -1.1 0.6 64 2.7 SW 32 50 17 27 1014.2 1013.3 0.0
26/10:30am 7.2 -0.7 1.1 65 2.6 SW 32 48 17 26 1014.3 1013.4 0.0
26/10:29am 7.4 0.0 1.7 67 2.5 SW 30 48 16 26 1014.3 1013.4 0.0
26/10:00am 8.2 0.1 3.3 71 2.2 SW 35 48 19 26 1013.9 1012.9 0.0
26/09:30am 6.4 -1.9 1.9 73 2.0 WSW 35 52 19 28 1013.6 1012.7 0.0
26/09:23am 6.1 -2.3 1.4 72 2.0 WSW 35 54 19 29 1013.5 1012.6 0.0
26/09:00am 6.2 -2.3 0.9 69 2.2 WSW 35 52 19 28 1013.2 1012.2 0.4
26/08:34am 5.4 -3.1 1.1 74 1.8 WSW 35 54 19 29 1012.9 1011.9 0.4
26/08:30am 5.2 -4.0 1.0 74 1.8 WSW 39 54 21 29 1012.7 1011.8 0.4
26/08:13am 4.6 -4.4 -0.2 71 1.9 WSW 37 57 20 31 1012.5 1011.6 0.4
26/08:00am 4.9 -4.0 0.5 73 1.8 WSW 37 54 20 29 1012.2 1011.2 0.4
26/07:30am 4.1 -4.2 2.0 86 0.9 WSW 35 48 19 26 1011.8 1010.8 0.4
26/07:00am 4.8 -3.9 1.8 81 1.3 WSW 37 54 20 29 1011.4 1010.4 0.4
26/06:30am 4.5 -2.8 2.5 87 0.9 SW 30 43 16 23 1011.3 1010.3 0.4
26/06:00am 4.9 -3.0 2.4 84 1.1 WSW 33 48 18 26 1010.8 1009.8 0.4
26/05:30am 5.0 -2.8 2.7 85 1.0 WSW 33 46 18 25 1010.5 1009.5 0.4
26/05:10am 5.3 -1.5 3.3 87 0.9 WSW 28 56 15 30 1010.4 1009.4 0.4
26/05:00am 5.4 -1.2 4.1 91 0.6 W 28 37 15 20 1010.3 1009.3 0.4
26/04:30am 5.6 -0.7 3.6 87 0.9 W 26 33 14 18 1010.0 1009.0 0.4
26/04:00am 5.6 -1.9 3.4 86 1.0 W 32 41 17 22 1009.8 1008.7 0.4
26/03:30am 5.5 -2.0 3.3 86 1.0 W 32 46 17 25 1009.6 1008.6 0.4
26/03:02am 5.4 -2.1 3.3 86 0.9 W 32 50 17 27 1009.6 1008.6 0.4
26/03:00am 5.4 -1.7 3.4 87 0.9 W 30 43 16 23 1009.6 1008.6 0.4
26/02:35am 5.1 -2.5 2.8 85 1.0 W 32 50 17 27 1009.8 1008.7 0.4
26/02:30am 5.0 -2.2 2.9 86 0.9 W 30 44 16 24 1009.9 1008.8 0.4
26/02:00am 5.4 -1.3 3.4 87 0.9 W 28 43 15 23 1010.2 1009.2 0.4
26/01:30am 5.4 -1.3 3.4 87 0.9 W 28 44 15 24 1010.3 1009.3 0.4
26/01:00am 4.9 -1.9 3.2 89 0.8 W 28 35 15 19 1010.6 1009.6 0.4
26/12:30am 5.0 -1.1 3.0 87 0.9 W 24 33 13 18 1011.1 1010.1 0.4
26/12:00am 4.8 -1.7 2.7 86 0.9 W 26 37 14 20 1011.3 1010.3 0.4
 
Date/Time
EDT
Temp
°C
App
Temp
°C
Dew
Point
Rel
Hum
%
Delta-T
°C
Wind Press
QNH
hPa
Press
MSL
hPa
Rain
since 9 am
mm
Dir
 
Spd
km/h
Gust
km/h
Spd
kts
Gust
kts
25/11:30pm 4.6 -1.9 2.8 88 0.8 W 26 37 14 20 1011.9 1010.9 0.4
25/11:00pm 4.6 -1.9 2.5 86 0.9 W 26 37 14 20 1012.2 1011.2 0.4
25/10:30pm 4.5 -1.7 2.4 86 0.9 W 24 33 13 18 1012.3 1011.3 0.4
25/10:00pm 4.1 -1.8 1.8 85 1.0 W 22 35 12 19 1012.3 1011.3 0.4
25/09:30pm 4.0 -1.9 1.5 84 1.0 W 22 33 12 18 1012.2 1011.2 0.4
25/09:00pm 3.9 -3.2 1.6 85 1.0 W 28 37 15 20 1012.0 1011.0 0.4
25/08:30pm 3.7 -3.1 1.1 83 1.1 WSW 26 33 14 18 1012.0 1011.0 0.4
25/08:05pm 3.6 -4.5 1.0 83 1.1 WSW 33 52 18 28 1012.0 1011.0 0.4
25/08:00pm 3.8 -5.0 1.2 83 1.1 WSW 37 48 20 26 1011.8 1010.8 0.4
25/07:30pm 4.3 -4.0 2.2 86 0.9 W 35 48 19 26 1011.5 1010.5 0.4
25/07:00pm 5.2 -2.6 1.5 77 1.6 W 32 46 17 25 1011.1 1010.1 0.4
25/06:30pm 5.5 -3.8 0.5 70 2.1 W 39 54 21 29 1011.1 1010.1 0.4
25/06:00pm 6.3 -2.6 2.8 78 1.6 WSW 39 54 21 29 1010.6 1009.6 0.4
25/05:30pm 6.4 -1.2 4.1 85 1.1 WSW 33 44 18 24 1010.5 1009.5 0.4
25/05:00pm 5.2 -2.3 3.5 89 0.8 WSW 32 44 17 24 1010.4 1009.4 0.2
25/04:55pm 5.5 -2.1 3.8 89 0.8 W 33 52 18 28 1010.4 1009.4 0.2
25/04:30pm 7.3 -1.7 2.6 72 2.1 WSW 39 48 21 26 1010.1 1009.1 0.0
25/04:11pm 9.2 -0.1 3.0 65 2.8 W 41 59 22 32 1009.9 1008.8 0.0
25/04:00pm 9.1 1.2 4.3 72 2.3 W 35 52 19 28 1009.8 1008.7 0.0
25/03:30pm 8.7 0.1 2.5 65 2.8 W 37 57 20 31 1009.6 1008.6 0.0
25/03:23pm 8.2 -0.4 2.4 67 2.6 W 37 57 20 31 1009.6 1008.6 0.0
25/03:00pm 8.9 1.1 4.7 75 2.0 WSW 35 48 19 26 1009.8 1008.7 0.0
25/02:45pm 7.2 -0.3 4.5 83 1.3 WSW 33 52 18 28 1009.5 1008.5 0.0
25/02:30pm 8.7 0.6 3.5 70 2.4 W 35 52 19 28 1009.3 1008.3 0.0
25/02:29pm 9.0 1.3 3.2 67 2.7 WSW 33 52 18 28 1009.2 1008.2 0.0
25/02:00pm 9.6 -0.3 1.8 58 3.5 WSW 43 57 23 31 1009.2 1008.2 0.0
25/01:30pm 10.3 1.6 1.9 56 3.8 W 37 57 20 31 1009.1 1008.1 0.0
25/01:00pm 8.4 -0.2 2.4 66 2.7 WSW 37 56 20 30 1009.1 1008.1 0.0
25/12:34pm 9.4 -0.1 1.6 58 3.5 WSW 41 59 22 32 1009.1 1008.1 0.0
25/12:30pm 9.7 -0.7 2.1 59 3.4 WSW 46 63 25 34 1009.0 1007.9 0.0
25/12:00pm 10.7 1.2 4.0 63 3.2 WSW 43 61 23 33 1008.4 1007.4 0.0
25/11:44am 9.3 0.3 2.4 62 3.1 WSW 39 57 21 31 1008.1 1007.0 0.0
25/11:30am 9.8 0.2 3.3 64 3.0 WSW 43 56 23 30 1007.9 1006.8 0.0
25/11:02am 8.4 -2.1 1.6 62 3.0 WSW 46 65 25 35 1007.5 1006.5 0.0
25/11:00am 8.4 -2.1 1.6 62 3.0 WSW 46 61 25 33 1007.5 1006.5 0.0
25/10:30am 8.2 -2.1 2.7 68 2.5 WSW 46 65 25 35 1007.3 1006.2 0.0
25/10:00am 8.1 -2.0 1.5 63 2.9 WSW 44 65 24 35 1006.7 1005.6 0.0
25/09:31am 7.3 -3.9 1.8 68 2.4 WSW 50 70 27 38 1006.2 1005.1 0.0
25/09:30am 7.3 -3.9 1.6 67 2.5 WSW 50 67 27 36 1006.2 1005.1 0.0
25/09:00am 6.7 -3.1 2.0 72 2.1 WSW 43 61 23 33 1005.8 1004.7 0.6
25/08:55am 6.5 -3.4 1.4 70 2.2 WSW 43 61 23 33 1005.8 1004.7 0.6
25/08:53am 6.9 -2.2 2.0 71 2.1 WSW 39 52 21 28 1005.7 1004.5 0.6
25/08:30am 5.7 -7.3 1.1 72 1.9 WSW 59 83 32 45 1004.7 1003.5 0.6
25/08:00am 5.4 -6.7 0.8 72 1.9 WSW 54 76 29 41 1004.3 1003.2 0.6
25/07:35am 4.6 -7.0 1.5 80 1.3 WSW 52 70 28 38 1004.2 1003.1 0.6
25/07:30am 4.4 -6.0 1.8 83 1.1 WSW 46 63 25 34 1004.1 1003.0 0.6
25/07:00am 4.1 -5.8 1.5 83 1.1 WSW 43 63 23 34 1004.0 1002.8 0.6
25/06:34am 3.8 -6.8 1.0 82 1.2 WSW 46 65 25 35 1003.2 1002.0 0.6
25/06:30am 3.7 -6.8 1.3 84 1.0 WSW 46 63 25 34 1003.1 1001.9 0.6
25/06:18am 3.2 -6.0 1.3 87 0.8 WSW 39 63 21 34 1003.0 1001.8 0.6
25/06:00am 3.1 -6.4 1.6 90 0.6 WSW 41 52 22 28 1003.2 1002.0 0.6
25/05:30am 3.0 -5.8 1.2 88 0.7 WSW 37 54 20 29 1002.9 1001.7 0.6
25/05:00am 2.9 -5.1 1.4 90 0.6 WSW 33 52 18 28 1002.7 1001.5 0.6
25/04:44am 3.1 -4.0 1.6 90 0.6 W 28 50 15 27 1002.4 1001.2 0.6
25/04:30am 3.0 -4.5 1.4 89 0.7 WSW 30 44 16 24 1002.4 1001.2 0.6
25/04:00am 3.1 -3.2 1.5 89 0.7 WSW 24 37 13 20 1002.7 1001.5 0.6
25/03:30am 3.0 -2.6 1.4 89 0.7 W 20 33 11 18 1002.9 1001.7 0.6
25/03:00am 2.7 -4.4 1.2 90 0.6 W 28 37 15 20 1002.9 1001.7 0.6
25/02:30am 3.0 -5.0 0.7 85 0.9 W 32 43 17 23 1002.9 1001.7 0.6
25/02:08am 3.2 -5.3 0.6 83 1.1 W 35 57 19 31 1002.9 1001.7 0.6
25/02:00am 3.2 -4.3 0.9 85 0.9 W 30 44 16 24 1003.1 1001.9 0.6
25/01:30am 2.7 -3.7 0.9 88 0.7 W 24 35 13 19 1003.2 1002.0 0.6
25/01:00am 2.6 -4.6 0.8 88 0.7 W 28 41 15 22 1003.6 1002.4 0.6
25/12:30am 2.4 -4.8 0.5 87 0.8 W 28 35 15 19 1003.7 1002.5 0.6
25/12:00am 2.4 -4.8 0.5 87 0.8 W 28 39 15 21 1004.1 1003.0 0.6
 
Date/Time
EDT
Temp
°C
App
Temp
°C
Dew
Point
Rel
Hum
%
Delta-T
°C
Wind Press
QNH
hPa
Press
MSL
hPa
Rain
since 9 am
mm
Dir
 
Spd
km/h
Gust
km/h
Spd
kts
Gust
kts
24/11:45pm 2.8 -5.7 0.7 86 0.9 W 35 52 19 28 1004.0 1002.8 0.6
24/11:30pm 2.2 -4.3 0.4 88 0.7 W 24 33 13 18 1004.2 1003.1 0.6
24/11:00pm 1.7 -3.6 -0.5 85 0.9 W 17 22 9 12 1004.5 1003.4 0.6
24/10:30pm 2.6 -4.7 -0.2 82 1.1 WSW 28 35 15 19 1004.4 1003.3 0.6
24/10:00pm 3.0 -4.2 0.6 84 1.0 W 28 37 15 20 1004.4 1003.3 0.6
24/09:30pm 3.1 -3.8 0.0 80 1.2 W 26 33 14 18 1004.1 1003.0 0.6
24/09:00pm 4.0 -3.2 1.0 81 1.3 W 28 35 15 19 1004.0 1002.8 0.6
24/08:30pm 5.7 -0.7 3.2 84 1.1 W 26 33 14 18 1004.0 1002.8 0.6
24/08:00pm 7.0 0.4 4.0 81 1.4 W 28 41 15 22 1003.8 1002.6 0.6
24/07:30pm 7.5 1.1 5.0 84 1.2 W 28 43 15 23 1003.2 1002.0 0.6
24/07:00pm 8.0 0.9 5.6 85 1.2 W 32 46 17 25 1003.2 1002.0 0.6
24/06:48pm 8.4 2.1 5.7 83 1.3 W 28 46 15 25 1003.1 1001.9 0.6
24/06:30pm 9.2 4.6 6.5 83 1.3 W 20 35 11 19 1003.0 1001.8 0.6
24/06:00pm 10.4 6.1 6.9 79 1.8 WNW 19 32 10 17 1002.9 1001.7 0.6
24/05:30pm 9.7 5.2 7.0 83 1.4 WNW 20 33 11 18 1003.3 1002.2 0.6
24/05:00pm 9.1 5.3 7.5 90 0.8 WNW 17 30 9 16 1003.7 1002.5 0.6

Other Formats:

Comma delimited format used in spreadsheet applications
http://www.bom.gov.au/fwo/IDT60801/IDT60801.95959.axf

JavaScript Object Notation format (JSON) in row-major order
http://www.bom.gov.au/fwo/IDT60801/IDT60801.95959.json